Learmouth Airport
YPLM : now visible

Aeroporto :











RITROVATECI SU...

 
LOGIN :

Iscrizione | Disclaimer

   EN    FR    IT 

 









Sommario :    VFR   VFR Marginale   IFR   IFR Intensivo   IFR Molto Intensivo
Visibilità : 
Base nubi : 
>= 8 km
>= 3000ft
5 / 8 km
1000 / 3000 ft
1500m / 5 km
500 / 1000 ft
800 / 1500m
200 / 500 ft
< 800m
< 200 ft
Simboli :   Temporali  Nebbia  Neve Forte  Precipitazioni Forti  Vento > 20 kt






- Altitudine del aeroporto : 19 ft
- Codice IATA : LEA


YPLM - Learmouth

ULTIMO METAR :
  • 171800Z AUTO 21005KT 9999 // NCD 24/19 Q1009

METARs OBSOLETI :
  • 171730Z AUTO 21003KT 9999 // NCD 24/18 Q1009 RF00.0/000.0
  • 171700Z AUTO 24005KT 9999 // NCD 25/18 Q1009
  • 171630Z AUTO 21007KT 9999 // NCD 24/20 Q1010 RF00.0/000.0
  • 171600Z AUTO 20007KT 9999 // NCD 25/20 Q1010
  • 171530Z AUTO 21007KT 9999 // NCD 25/19 Q1010 RF00.0/000.0

TAF TAF YPLM
Valido dal 17 a 18 ore il 18 a 18 ore UTC


171650Z 1718/1818 23012KT CAVOK
FM180100 17012KT CAVOK
FM180400 06012KT CAVOK
FM180800 26014KT CAVOK
FM181300 23012KT CAVOK



MetMap, La meteo Aeronautica in un colpo d'occhio ! - Copyright ORBIFLY Dicembre 2007 - Disclaimer

ORBIFLY MET'MAP TEAM :

Programmazione e sviluppo : Alexandra Zaïnal
Concezione : Baudouin d'Aumeries
Aiuto per la programmazione : Marc-Olivier Méhu
Supporto tecnico e logistico : Manuel Goepfert
Aiuto per la traduzione : Arnaldo La Scala

Contatto : metmap@orbifly.com




FONTI E CREDITI :

   NOAA       Earth
Advisory